Chatom, Alabama
Current Conditions -  °F | °C
As of 3:56 PM on Monday 26 Jan 2015 (Local Time) from KMOB Reporting Station
Clear Clear  
Wind Chill: 57°   Ceiling: Unl
Heat Index: 57°   Visibility: 10mi
Dew Point: 31°   Wind: 12mph
Humidity: 37%   Direction: 310°NW
Pressure: 30.02"   Gusts: NA
Location:  31.47°N, 88.25°W
Report Text: KMOB 262156Z 31010KT 10SM CLR 14/M01 A3002 RMK AO2 SLP166 T01391006
Loading
Personal Weather Stations






























Interactive Weather Map New forecast layout! Learn more

10-Day Weather Forecast

Advertisements
Track Severe Weather on mobile